Fort Chipewyan Airport
CYPY : now visible

Airfield :











YOU CAN JOIN US ON...

 
LOGIN :

Register | Disclaimer

   EN    FR    IT 

 









Legend :    VFR   Marginal VFR   IFR   Intensive IFR   Very Intensive IFR
Visi :
Ceiling :
>= 8 km
>= 3000ft
5 to 8 km
1000 to 3000 ft
1500m to 5 km
500 to 1000 ft
800 to 1500m
200 to 500 ft
< 800m
< 200 ft
Symbols :   Thunderstorms  Fog  Heavy snow  Heavy precipitations  Wind > 20 kt







- Airport Elevation : 761 ft
- IATA code : YPY


CYPY - Fort Chipewyan

CURRENT METAR :
  • 162100Z AUTO 27014KT 9SM 16/12 A2957 RMK CLD MISG SLP019 DENSITY ALT 1400FT

EXPIRED METARs :
  • 162000Z AUTO 24007KT 220V280 BKN021 OVC090 16/12 A2955 RMK WX MISG VIS MISG PCPN MISG SLP016 DENSITY ALT 1400FT
  • 161938Z AUTO 20004KT 160V260 BKN023 OVC090 16/12 A2955 RMK WX MISG VIS MISG PCPN MISG SLP015 DENSITY ALT 1400FT

TAF TAF CYPY
Valid from the 16 at 18:00 until the 17 at 06:00 UTC


161738Z 1618/1706 08010KT P6SM SCT020 BKN060
TEMPO 1618/1706 P6SM -RA BKN020
PROB40 1618/1621 2SM -SHRA BR BKN007 RMK FCST BASED ON AUTO OBS. NXT FCST BY 170000Z
No reported NOTAMs for that airfield.



MET'MAP, your aeronautical weather chart ! - Copyright ORBIFLY December 2007 - Disclaimer

ORBIFLY MET'MAP TEAM :

Programming & Development : Alexandra Zaïnal
Concept & Development : Baudouin d'Aumeries
Co-Development & Prog : Marc-Olivier Méhu
Technical & hardware support : Manuel Goepfert

Contact : metmap@orbifly.com




SOURCES & CREDITS :

   NOAA       Earth
Advisory